sensor_id;sensor_type;location;lat;lon;timestamp;temperature;humidity
30097;DHT22;16915;51.466;3.610;2023-03-30T00:02:02;14.20;99.90
30097;DHT22;16915;51.466;3.610;2023-03-30T00:04:29;14.20;99.90
30097;DHT22;16915;51.466;3.610;2023-03-30T00:06:54;14.20;99.90
30097;DHT22;16915;51.466;3.610;2023-03-30T00:09:20;14.10;99.90
30097;DHT22;16915;51.466;3.610;2023-03-30T00:11:47;13.90;99.90
30097;DHT22;16915;51.466;3.610;2023-03-30T00:14:13;13.80;99.90
30097;DHT22;16915;51.466;3.610;2023-03-30T00:16:42;13.60;99.90
30097;DHT22;16915;51.466;3.610;2023-03-30T00:19:07;13.60;99.90
30097;DHT22;16915;51.466;3.610;2023-03-30T00:21:33;13.60;99.90
30097;DHT22;16915;51.466;3.610;2023-03-30T00:23:59;13.60;99.90
30097;DHT22;16915;51.466;3.610;2023-03-30T00:26:24;13.70;99.90
30097;DHT22;16915;51.466;3.610;2023-03-30T00:28:51;13.70;99.90
30097;DHT22;16915;51.466;3.610;2023-03-30T00:31:17;13.70;99.90
30097;DHT22;16915;51.466;3.610;2023-03-30T00:33:42;13.70;99.90
30097;DHT22;16915;51.466;3.610;2023-03-30T00:36:08;13.70;99.90
30097;DHT22;16915;51.466;3.610;2023-03-30T00:38:34;13.80;99.90
30097;DHT22;16915;51.466;3.610;2023-03-30T00:41:00;13.70;99.90
30097;DHT22;16915;51.466;3.610;2023-03-30T00:43:26;13.80;99.90
30097;DHT22;16915;51.466;3.610;2023-03-30T00:45:52;13.70;99.90
30097;DHT22;16915;51.466;3.610;2023-03-30T00:48:26;13.70;99.90
30097;DHT22;16915;51.466;3.610;2023-03-30T00:50:59;13.60;99.90
30097;DHT22;16915;51.466;3.610;2023-03-30T00:53:43;13.60;99.90
30097;DHT22;16915;51.466;3.610;2023-03-30T00:56:13;13.50;99.90
30097;DHT22;16915;51.466;3.610;2023-03-30T00:58:41;13.50;99.90
30097;DHT22;16915;51.466;3.610;2023-03-30T01:01:10;13.50;99.90
30097;DHT22;16915;51.466;3.610;2023-03-30T01:03:44;13.50;99.90
30097;DHT22;16915;51.466;3.610;2023-03-30T01:06:13;13.40;99.90
30097;DHT22;16915;51.466;3.610;2023-03-30T01:08:42;13.30;99.90
30097;DHT22;16915;51.466;3.610;2023-03-30T01:11:09;13.20;99.90
30097;DHT22;16915;51.466;3.610;2023-03-30T01:13:38;13.20;99.90
30097;DHT22;16915;51.466;3.610;2023-03-30T01:27:30;13.30;99.90
30097;DHT22;16915;51.466;3.610;2023-03-30T01:46:39;13.30;99.90
30097;DHT22;16915;51.466;3.610;2023-03-30T01:50:02;13.40;99.90
30097;DHT22;16915;51.466;3.610;2023-03-30T01:52:17;13.30;99.90
30097;DHT22;16915;51.466;3.610;2023-03-30T01:54:56;13.30;99.90
30097;DHT22;16915;51.466;3.610;2023-03-30T02:00:34;13.30;99.90
30097;DHT22;16915;51.466;3.610;2023-03-30T02:03:03;13.40;99.90
30097;DHT22;16915;51.466;3.610;2023-03-30T02:05:32;13.40;99.90
30097;DHT22;16915;51.466;3.610;2023-03-30T02:08:06;13.40;99.90
30097;DHT22;16915;51.466;3.610;2023-03-30T02:10:34;13.50;99.90
30097;DHT22;16915;51.466;3.610;2023-03-30T02:13:01;13.50;99.90
30097;DHT22;16915;51.466;3.610;2023-03-30T02:16:02;13.50;99.90
30097;DHT22;16915;51.466;3.610;2023-03-30T02:18:29;13.50;99.90
30097;DHT22;16915;51.466;3.610;2023-03-30T02:20:55;13.50;99.90
30097;DHT22;16915;51.466;3.610;2023-03-30T02:23:25;13.50;99.90
30097;DHT22;16915;51.466;3.610;2023-03-30T02:25:52;13.50;99.90
30097;DHT22;16915;51.466;3.610;2023-03-30T02:28:18;13.50;99.90
30097;DHT22;16915;51.466;3.610;2023-03-30T02:30:44;13.50;99.90
30097;DHT22;16915;51.466;3.610;2023-03-30T02:33:56;13.50;99.90
30097;DHT22;16915;51.466;3.610;2023-03-30T02:36:36;13.50;99.90
30097;DHT22;16915;51.466;3.610;2023-03-30T02:47:16;13.40;99.90
30097;DHT22;16915;51.466;3.610;2023-03-30T02:49:59;13.40;99.90
30097;DHT22;16915;51.466;3.610;2023-03-30T02:55:12;13.30;99.90
30097;DHT22;16915;51.466;3.610;2023-03-30T02:57:52;13.20;99.90
30097;DHT22;16915;51.466;3.610;2023-03-30T03:03:19;13.00;99.90
30097;DHT22;16915;51.466;3.610;2023-03-30T03:05:50;13.00;99.90
30097;DHT22;16915;51.466;3.610;2023-03-30T03:08:19;12.90;99.90
30097;DHT22;16915;51.466;3.610;2023-03-30T03:10:48;12.80;99.90
30097;DHT22;16915;51.466;3.610;2023-03-30T03:13:14;12.70;99.90
30097;DHT22;16915;51.466;3.610;2023-03-30T03:15:40;12.60;99.90
30097;DHT22;16915;51.466;3.610;2023-03-30T03:18:10;12.60;99.90
30097;DHT22;16915;51.466;3.610;2023-03-30T03:20:37;12.50;99.90
30097;DHT22;16915;51.466;3.610;2023-03-30T03:23:03;12.50;99.90
30097;DHT22;16915;51.466;3.610;2023-03-30T03:25:28;12.40;99.90
30097;DHT22;16915;51.466;3.610;2023-03-30T03:27:54;12.40;99.90
30097;DHT22;16915;51.466;3.610;2023-03-30T03:30:20;12.40;99.90
30097;DHT22;16915;51.466;3.610;2023-03-30T03:32:46;12.30;99.90
30097;DHT22;16915;51.466;3.610;2023-03-30T03:35:11;12.30;99.90
30097;DHT22;16915;51.466;3.610;2023-03-30T03:37:37;12.30;99.90
30097;DHT22;16915;51.466;3.610;2023-03-30T03:40:03;12.30;99.90
30097;DHT22;16915;51.466;3.610;2023-03-30T03:42:30;12.30;99.90
30097;DHT22;16915;51.466;3.610;2023-03-30T03:44:56;12.30;99.90
30097;DHT22;16915;51.466;3.610;2023-03-30T03:47:21;12.30;99.90
30097;DHT22;16915;51.466;3.610;2023-03-30T03:49:47;12.20;99.90
30097;DHT22;16915;51.466;3.610;2023-03-30T03:52:13;12.30;99.90
30097;DHT22;16915;51.466;3.610;2023-03-30T03:54:38;12.20;99.90
30097;DHT22;16915;51.466;3.610;2023-03-30T03:57:04;12.20;99.90
30097;DHT22;16915;51.466;3.610;2023-03-30T03:59:30;12.20;99.90
30097;DHT22;16915;51.466;3.610;2023-03-30T04:01:56;12.20;99.90
30097;DHT22;16915;51.466;3.610;2023-03-30T04:04:21;12.20;99.90
30097;DHT22;16915;51.466;3.610;2023-03-30T04:06:47;12.20;99.90
30097;DHT22;16915;51.466;3.610;2023-03-30T04:09:12;12.20;99.90
30097;DHT22;16915;51.466;3.610;2023-03-30T04:11:38;12.20;99.90
30097;DHT22;16915;51.466;3.610;2023-03-30T04:14:04;12.10;99.90
30097;DHT22;16915;51.466;3.610;2023-03-30T04:16:29;12.10;99.90
30097;DHT22;16915;51.466;3.610;2023-03-30T04:18:55;12.00;99.90
30097;DHT22;16915;51.466;3.610;2023-03-30T04:21:22;12.10;99.90
30097;DHT22;16915;51.466;3.610;2023-03-30T04:23:48;12.10;99.90
30097;DHT22;16915;51.466;3.610;2023-03-30T04:26:14;12.00;99.90
30097;DHT22;16915;51.466;3.610;2023-03-30T04:28:40;12.00;99.90
30097;DHT22;16915;51.466;3.610;2023-03-30T04:31:08;12.00;99.90
30097;DHT22;16915;51.466;3.610;2023-03-30T04:33:38;11.90;99.90
30097;DHT22;16915;51.466;3.610;2023-03-30T04:36:10;11.90;99.90
30097;DHT22;16915;51.466;3.610;2023-03-30T04:38:45;11.80;99.90
30097;DHT22;16915;51.466;3.610;2023-03-30T04:41:24;11.80;99.90
30097;DHT22;16915;51.466;3.610;2023-03-30T04:43:51;11.70;99.90
30097;DHT22;16915;51.466;3.610;2023-03-30T04:46:16;11.70;99.90
30097;DHT22;16915;51.466;3.610;2023-03-30T04:48:42;11.60;99.90
30097;DHT22;16915;51.466;3.610;2023-03-30T04:51:08;11.50;99.90
30097;DHT22;16915;51.466;3.610;2023-03-30T04:53:34;11.50;99.90
30097;DHT22;16915;51.466;3.610;2023-03-30T04:55:59;11.50;99.90
30097;DHT22;16915;51.466;3.610;2023-03-30T04:58:25;11.40;99.90
30097;DHT22;16915;51.466;3.610;2023-03-30T05:00:51;11.40;99.90
30097;DHT22;16915;51.466;3.610;2023-03-30T05:03:16;11.40;99.90
30097;DHT22;16915;51.466;3.610;2023-03-30T05:05:42;11.40;99.90
30097;DHT22;16915;51.466;3.610;2023-03-30T05:08:07;11.40;99.90
30097;DHT22;16915;51.466;3.610;2023-03-30T05:10:33;11.40;99.90
30097;DHT22;16915;51.466;3.610;2023-03-30T05:12:59;11.40;99.90
30097;DHT22;16915;51.466;3.610;2023-03-30T05:15:24;11.40;99.90
30097;DHT22;16915;51.466;3.610;2023-03-30T05:17:50;11.50;99.90
30097;DHT22;16915;51.466;3.610;2023-03-30T05:20:16;11.50;99.90
30097;DHT22;16915;51.466;3.610;2023-03-30T05:22:42;11.60;99.90
30097;DHT22;16915;51.466;3.610;2023-03-30T05:25:08;11.60;99.90
30097;DHT22;16915;51.466;3.610;2023-03-30T05:27:34;11.60;99.90
30097;DHT22;16915;51.466;3.610;2023-03-30T05:30:00;11.60;99.90
30097;DHT22;16915;51.466;3.610;2023-03-30T05:32:26;11.60;99.90
30097;DHT22;16915;51.466;3.610;2023-03-30T05:34:52;11.70;99.90
30097;DHT22;16915;51.466;3.610;2023-03-30T05:37:17;11.70;99.90
30097;DHT22;16915;51.466;3.610;2023-03-30T05:39:43;11.70;99.90
30097;DHT22;16915;51.466;3.610;2023-03-30T05:42:09;11.70;99.90
30097;DHT22;16915;51.466;3.610;2023-03-30T05:44:36;11.70;99.90
30097;DHT22;16915;51.466;3.610;2023-03-30T05:47:01;11.70;99.90
30097;DHT22;16915;51.466;3.610;2023-03-30T05:49:27;11.70;99.90
30097;DHT22;16915;51.466;3.610;2023-03-30T05:51:52;11.70;99.90
30097;DHT22;16915;51.466;3.610;2023-03-30T05:54:18;11.70;99.90
30097;DHT22;16915;51.466;3.610;2023-03-30T05:56:43;11.70;99.90
30097;DHT22;16915;51.466;3.610;2023-03-30T05:59:09;11.70;99.90
30097;DHT22;16915;51.466;3.610;2023-03-30T06:01:36;11.70;99.90
30097;DHT22;16915;51.466;3.610;2023-03-30T06:04:02;11.70;99.90
30097;DHT22;16915;51.466;3.610;2023-03-30T06:06:28;11.70;99.90
30097;DHT22;16915;51.466;3.610;2023-03-30T06:08:54;11.70;99.90
30097;DHT22;16915;51.466;3.610;2023-03-30T06:11:19;11.70;99.90
30097;DHT22;16915;51.466;3.610;2023-03-30T06:13:45;11.70;99.90
30097;DHT22;16915;51.466;3.610;2023-03-30T06:16:11;11.70;99.90
30097;DHT22;16915;51.466;3.610;2023-03-30T06:18:37;11.70;99.90
30097;DHT22;16915;51.466;3.610;2023-03-30T06:21:03;11.70;99.90
30097;DHT22;16915;51.466;3.610;2023-03-30T06:23:33;11.70;99.90
30097;DHT22;16915;51.466;3.610;2023-03-30T06:25:59;11.70;99.90
30097;DHT22;16915;51.466;3.610;2023-03-30T06:28:26;11.70;99.90
30097;DHT22;16915;51.466;3.610;2023-03-30T06:30:52;11.70;99.90
30097;DHT22;16915;51.466;3.610;2023-03-30T06:33:18;11.70;99.90
30097;DHT22;16915;51.466;3.610;2023-03-30T06:35:45;11.70;99.90
30097;DHT22;16915;51.466;3.610;2023-03-30T06:38:11;11.70;99.90
30097;DHT22;16915;51.466;3.610;2023-03-30T06:40:37;11.70;99.90
30097;DHT22;16915;51.466;3.610;2023-03-30T06:43:03;11.70;99.90
30097;DHT22;16915;51.466;3.610;2023-03-30T06:45:28;11.60;99.90
30097;DHT22;16915;51.466;3.610;2023-03-30T06:47:54;11.60;99.90
30097;DHT22;16915;51.466;3.610;2023-03-30T06:50:20;11.60;99.90
30097;DHT22;16915;51.466;3.610;2023-03-30T06:52:46;11.70;99.90
30097;DHT22;16915;51.466;3.610;2023-03-30T06:55:11;11.60;99.90
30097;DHT22;16915;51.466;3.610;2023-03-30T06:57:37;11.70;99.90
30097;DHT22;16915;51.466;3.610;2023-03-30T07:00:03;11.70;99.90
30097;DHT22;16915;51.466;3.610;2023-03-30T07:02:38;11.70;99.90
30097;DHT22;16915;51.466;3.610;2023-03-30T07:05:04;11.80;99.90
30097;DHT22;16915;51.466;3.610;2023-03-30T07:07:31;11.80;99.90
30097;DHT22;16915;51.466;3.610;2023-03-30T07:09:56;11.80;99.90
30097;DHT22;16915;51.466;3.610;2023-03-30T07:12:22;11.70;99.90
30097;DHT22;16915;51.466;3.610;2023-03-30T07:14:47;11.60;99.90
30097;DHT22;16915;51.466;3.610;2023-03-30T07:17:13;11.60;99.90
30097;DHT22;16915;51.466;3.610;2023-03-30T07:19:39;11.60;99.90
30097;DHT22;16915;51.466;3.610;2023-03-30T07:22:04;11.70;99.90
30097;DHT22;16915;51.466;3.610;2023-03-30T07:24:30;11.70;99.90
30097;DHT22;16915;51.466;3.610;2023-03-30T07:26:58;11.80;99.90
30097;DHT22;16915;51.466;3.610;2023-03-30T07:29:23;11.90;99.90
30097;DHT22;16915;51.466;3.610;2023-03-30T07:31:49;11.90;99.90
30097;DHT22;16915;51.466;3.610;2023-03-30T07:34:15;12.00;99.90
30097;DHT22;16915;51.466;3.610;2023-03-30T07:36:41;12.00;99.90
30097;DHT22;16915;51.466;3.610;2023-03-30T07:39:07;12.10;99.90
30097;DHT22;16915;51.466;3.610;2023-03-30T07:41:33;12.20;99.90
30097;DHT22;16915;51.466;3.610;2023-03-30T07:43:58;12.30;99.90
30097;DHT22;16915;51.466;3.610;2023-03-30T07:46:24;12.40;99.90
30097;DHT22;16915;51.466;3.610;2023-03-30T07:48:50;12.40;99.90
30097;DHT22;16915;51.466;3.610;2023-03-30T07:51:17;12.50;99.90
30097;DHT22;16915;51.466;3.610;2023-03-30T07:53:43;12.50;99.90
30097;DHT22;16915;51.466;3.610;2023-03-30T07:56:08;12.50;99.90
30097;DHT22;16915;51.466;3.610;2023-03-30T07:58:34;12.60;99.90
30097;DHT22;16915;51.466;3.610;2023-03-30T08:01:01;12.80;99.90
30097;DHT22;16915;51.466;3.610;2023-03-30T08:03:27;12.90;99.90
30097;DHT22;16915;51.466;3.610;2023-03-30T08:05:54;13.00;99.90
30097;DHT22;16915;51.466;3.610;2023-03-30T08:08:20;13.00;99.90
30097;DHT22;16915;51.466;3.610;2023-03-30T08:10:45;13.00;99.90
30097;DHT22;16915;51.466;3.610;2023-03-30T08:13:11;12.90;99.90
30097;DHT22;16915;51.466;3.610;2023-03-30T08:15:37;12.90;99.90
30097;DHT22;16915;51.466;3.610;2023-03-30T08:18:03;12.90;99.90
30097;DHT22;16915;51.466;3.610;2023-03-30T08:20:34;12.90;99.90
30097;DHT22;16915;51.466;3.610;2023-03-30T08:23:00;12.90;99.90
30097;DHT22;16915;51.466;3.610;2023-03-30T08:25:26;12.80;99.90
30097;DHT22;16915;51.466;3.610;2023-03-30T08:27:52;12.80;99.90
30097;DHT22;16915;51.466;3.610;2023-03-30T08:30:17;13.00;99.90
30097;DHT22;16915;51.466;3.610;2023-03-30T08:32:43;13.10;99.90
30097;DHT22;16915;51.466;3.610;2023-03-30T08:35:08;13.10;99.90
30097;DHT22;16915;51.466;3.610;2023-03-30T08:37:34;13.20;99.90
30097;DHT22;16915;51.466;3.610;2023-03-30T08:39:59;13.30;99.90
30097;DHT22;16915;51.466;3.610;2023-03-30T08:42:38;13.40;99.90
30097;DHT22;16915;51.466;3.610;2023-03-30T08:45:10;13.40;99.90
30097;DHT22;16915;51.466;3.610;2023-03-30T08:47:39;13.40;99.90
30097;DHT22;16915;51.466;3.610;2023-03-30T08:50:29;13.50;99.90
30097;DHT22;16915;51.466;3.610;2023-03-30T08:52:56;13.50;99.90
30097;DHT22;16915;51.466;3.610;2023-03-30T08:55:38;13.40;99.90
30097;DHT22;16915;51.466;3.610;2023-03-30T09:01:33;13.50;99.90
30097;DHT22;16915;51.466;3.610;2023-03-30T09:05:04;13.70;99.90
30097;DHT22;16915;51.466;3.610;2023-03-30T09:07:17;13.80;99.90
30097;DHT22;16915;51.466;3.610;2023-03-30T09:09:45;13.90;99.90
30097;DHT22;16915;51.466;3.610;2023-03-30T09:14:49;14.00;99.90
30097;DHT22;16915;51.466;3.610;2023-03-30T09:17:19;14.20;99.90
30097;DHT22;16915;51.466;3.610;2023-03-30T09:19:54;14.40;99.90
30097;DHT22;16915;51.466;3.610;2023-03-30T09:22:25;14.40;99.90
30097;DHT22;16915;51.466;3.610;2023-03-30T09:24:53;14.50;99.90
30097;DHT22;16915;51.466;3.610;2023-03-30T09:30:28;14.50;99.90
30097;DHT22;16915;51.466;3.610;2023-03-30T09:33:45;14.40;99.90
30097;DHT22;16915;51.466;3.610;2023-03-30T09:36:02;14.40;99.90
30097;DHT22;16915;51.466;3.610;2023-03-30T09:38:32;14.50;99.90
30097;DHT22;16915;51.466;3.610;2023-03-30T09:41:46;14.50;99.90
30097;DHT22;16915;51.466;3.610;2023-03-30T09:44:20;14.60;99.90
30097;DHT22;16915;51.466;3.610;2023-03-30T09:46:47;14.50;99.90
30097;DHT22;16915;51.466;3.610;2023-03-30T09:49:15;14.60;99.90
30097;DHT22;16915;51.466;3.610;2023-03-30T09:52:01;14.60;99.90
30097;DHT22;16915;51.466;3.610;2023-03-30T09:54:48;14.60;99.90
30097;DHT22;16915;51.466;3.610;2023-03-30T09:57:27;14.50;99.90
30097;DHT22;16915;51.466;3.610;2023-03-30T09:59:53;14.50;99.90
30097;DHT22;16915;51.466;3.610;2023-03-30T10:02:21;14.60;99.90
30097;DHT22;16915;51.466;3.610;2023-03-30T10:07:39;14.90;99.90
30097;DHT22;16915;51.466;3.610;2023-03-30T10:10:35;15.20;99.90
30097;DHT22;16915;51.466;3.610;2023-03-30T10:13:14;15.30;99.90
30097;DHT22;16915;51.466;3.610;2023-03-30T10:15:43;15.40;99.90
30097;DHT22;16915;51.466;3.610;2023-03-30T10:18:32;15.50;99.90
30097;DHT22;16915;51.466;3.610;2023-03-30T10:21:15;15.80;99.90
30097;DHT22;16915;51.466;3.610;2023-03-30T10:23:43;15.90;99.90
30097;DHT22;16915;51.466;3.610;2023-03-30T10:26:18;16.00;99.90
30097;DHT22;16915;51.466;3.610;2023-03-30T10:28:54;16.30;99.90
30097;DHT22;16915;51.466;3.610;2023-03-30T10:31:21;16.60;99.90
30097;DHT22;16915;51.466;3.610;2023-03-30T10:33:48;16.60;99.90
30097;DHT22;16915;51.466;3.610;2023-03-30T10:36:15;16.60;99.90
30097;DHT22;16915;51.466;3.610;2023-03-30T10:38:43;16.60;99.90
30097;DHT22;16915;51.466;3.610;2023-03-30T10:41:15;16.80;99.90
30097;DHT22;16915;51.466;3.610;2023-03-30T10:43:45;17.00;99.90
30097;DHT22;16915;51.466;3.610;2023-03-30T10:52:14;16.90;99.90
30097;DHT22;16915;51.466;3.610;2023-03-30T10:57:12;16.90;99.90
30097;DHT22;16915;51.466;3.610;2023-03-30T11:00:15;16.80;99.90
30097;DHT22;16915;51.466;3.610;2023-03-30T11:03:09;16.70;99.90
30097;DHT22;16915;51.466;3.610;2023-03-30T11:05:45;16.60;99.90
30097;DHT22;16915;51.466;3.610;2023-03-30T11:08:17;16.70;99.90
30097;DHT22;16915;51.466;3.610;2023-03-30T11:10:51;17.20;99.90
30097;DHT22;16915;51.466;3.610;2023-03-30T11:13:30;17.60;99.90
30097;DHT22;16915;51.466;3.610;2023-03-30T11:16:03;17.60;99.90
30097;DHT22;16915;51.466;3.610;2023-03-30T11:18:41;17.80;99.90
30097;DHT22;16915;51.466;3.610;2023-03-30T11:21:11;18.10;99.90
30097;DHT22;16915;51.466;3.610;2023-03-30T11:26:16;18.10;99.90
30097;DHT22;16915;51.466;3.610;2023-03-30T11:35:11;18.40;99.90
30097;DHT22;16915;51.466;3.610;2023-03-30T11:38:11;18.80;99.90
30097;DHT22;16915;51.466;3.610;2023-03-30T11:43:12;18.40;99.90
30097;DHT22;16915;51.466;3.610;2023-03-30T12:02:50;17.50;99.90
30097;DHT22;16915;51.466;3.610;2023-03-30T12:05:32;17.30;99.90
30097;DHT22;16915;51.466;3.610;2023-03-30T12:08:22;17.20;99.90
30097;DHT22;16915;51.466;3.610;2023-03-30T12:13:29;17.00;99.90
30097;DHT22;16915;51.466;3.610;2023-03-30T12:16:01;17.50;99.90
30097;DHT22;16915;51.466;3.610;2023-03-30T12:18:56;18.30;99.90
30097;DHT22;16915;51.466;3.610;2023-03-30T12:21:39;18.80;99.90
30097;DHT22;16915;51.466;3.610;2023-03-30T12:26:55;20.00;99.90
30097;DHT22;16915;51.466;3.610;2023-03-30T12:29:21;20.20;99.90
30097;DHT22;16915;51.466;3.610;2023-03-30T12:31:49;20.50;99.90
30097;DHT22;16915;51.466;3.610;2023-03-30T12:34:16;20.60;99.90
30097;DHT22;16915;51.466;3.610;2023-03-30T12:36:52;20.70;99.90
30097;DHT22;16915;51.466;3.610;2023-03-30T12:39:25;21.00;99.90
30097;DHT22;16915;51.466;3.610;2023-03-30T12:42:08;21.00;99.90
30097;DHT22;16915;51.466;3.610;2023-03-30T12:47:37;21.30;99.90
30097;DHT22;16915;51.466;3.610;2023-03-30T12:55:48;21.20;99.90
30097;DHT22;16915;51.466;3.610;2023-03-30T12:58:53;21.40;99.90
30097;DHT22;16915;51.466;3.610;2023-03-30T13:04:36;21.30;99.90
30097;DHT22;16915;51.466;3.610;2023-03-30T13:07:16;21.70;99.90
30097;DHT22;16915;51.466;3.610;2023-03-30T13:10:05;21.50;99.90
30097;DHT22;16915;51.466;3.610;2023-03-30T13:12:39;21.50;99.90
30097;DHT22;16915;51.466;3.610;2023-03-30T13:21:04;22.10;99.90
30097;DHT22;16915;51.466;3.610;2023-03-30T13:23:32;21.50;99.90
30097;DHT22;16915;51.466;3.610;2023-03-30T13:29:10;22.00;99.90
30097;DHT22;16915;51.466;3.610;2023-03-30T13:31:45;21.80;99.90
30097;DHT22;16915;51.466;3.610;2023-03-30T13:42:25;21.80;99.90
30097;DHT22;16915;51.466;3.610;2023-03-30T13:47:36;21.70;99.90
30097;DHT22;16915;51.466;3.610;2023-03-30T13:50:28;22.00;99.90
30097;DHT22;16915;51.466;3.610;2023-03-30T13:52:58;22.30;99.90
30097;DHT22;16915;51.466;3.610;2023-03-30T13:55:32;22.10;99.90
30097;DHT22;16915;51.466;3.610;2023-03-30T14:00:49;22.60;99.90
30097;DHT22;16915;51.466;3.610;2023-03-30T14:08:37;22.50;99.90
30097;DHT22;16915;51.466;3.610;2023-03-30T14:11:14;22.20;99.90
30097;DHT22;16915;51.466;3.610;2023-03-30T14:13:42;22.10;99.90
30097;DHT22;16915;51.466;3.610;2023-03-30T14:16:10;21.90;99.90
30097;DHT22;16915;51.466;3.610;2023-03-30T14:18:37;21.80;99.90
30097;DHT22;16915;51.466;3.610;2023-03-30T14:21:04;21.60;99.90
30097;DHT22;16915;51.466;3.610;2023-03-30T14:23:37;21.70;99.90
30097;DHT22;16915;51.466;3.610;2023-03-30T14:26:22;21.90;99.90
30097;DHT22;16915;51.466;3.610;2023-03-30T14:28:53;22.00;99.90
30097;DHT22;16915;51.466;3.610;2023-03-30T14:31:20;21.80;99.90
30097;DHT22;16915;51.466;3.610;2023-03-30T14:33:46;22.10;99.90
30097;DHT22;16915;51.466;3.610;2023-03-30T14:36:15;22.20;99.90
30097;DHT22;16915;51.466;3.610;2023-03-30T14:38:44;22.20;99.90
30097;DHT22;16915;51.466;3.610;2023-03-30T14:41:19;22.10;99.90
30097;DHT22;16915;51.466;3.610;2023-03-30T14:43:58;22.50;99.90
30097;DHT22;16915;51.466;3.610;2023-03-30T14:46:31;22.40;99.90
30097;DHT22;16915;51.466;3.610;2023-03-30T14:49:00;22.60;99.90
30097;DHT22;16915;51.466;3.610;2023-03-30T14:53:58;21.70;99.90
30097;DHT22;16915;51.466;3.610;2023-03-30T14:56:24;21.30;99.90
30097;DHT22;16915;51.466;3.610;2023-03-30T14:58:53;20.90;99.90
30097;DHT22;16915;51.466;3.610;2023-03-30T15:01:25;20.40;99.90
30097;DHT22;16915;51.466;3.610;2023-03-30T15:03:56;19.60;99.90
30097;DHT22;16915;51.466;3.610;2023-03-30T15:06:23;18.80;99.90
30097;DHT22;16915;51.466;3.610;2023-03-30T15:08:50;18.00;99.90
30097;DHT22;16915;51.466;3.610;2023-03-30T15:11:21;17.40;99.90
30097;DHT22;16915;51.466;3.610;2023-03-30T15:13:51;16.90;99.90
30097;DHT22;16915;51.466;3.610;2023-03-30T15:16:21;16.50;99.90
30097;DHT22;16915;51.466;3.610;2023-03-30T15:18:49;16.20;99.90
30097;DHT22;16915;51.466;3.610;2023-03-30T15:21:17;16.00;99.90
30097;DHT22;16915;51.466;3.610;2023-03-30T15:23:44;15.80;99.90
30097;DHT22;16915;51.466;3.610;2023-03-30T15:26:11;15.70;99.90
30097;DHT22;16915;51.466;3.610;2023-03-30T15:31:10;15.70;99.90
30097;DHT22;16915;51.466;3.610;2023-03-30T15:33:50;15.60;99.90
30097;DHT22;16915;51.466;3.610;2023-03-30T15:38:49;15.20;99.90
30097;DHT22;16915;51.466;3.610;2023-03-30T15:41:17;15.10;99.90
30097;DHT22;16915;51.466;3.610;2023-03-30T15:43:57;15.00;99.90
30097;DHT22;16915;51.466;3.610;2023-03-30T15:46:24;15.10;99.90
30097;DHT22;16915;51.466;3.610;2023-03-30T15:48:52;15.00;99.90
30097;DHT22;16915;51.466;3.610;2023-03-30T15:51:34;14.90;99.90
30097;DHT22;16915;51.466;3.610;2023-03-30T16:02:21;14.70;99.90
30097;DHT22;16915;51.466;3.610;2023-03-30T16:04:48;14.70;99.90
30097;DHT22;16915;51.466;3.610;2023-03-30T16:09:39;14.70;99.90
30097;DHT22;16915;51.466;3.610;2023-03-30T16:12:05;14.60;99.90
30097;DHT22;16915;51.466;3.610;2023-03-30T16:14:31;14.70;99.90
30097;DHT22;16915;51.466;3.610;2023-03-30T16:16:57;14.70;99.90
30097;DHT22;16915;51.466;3.610;2023-03-30T16:19:22;14.80;99.90
30097;DHT22;16915;51.466;3.610;2023-03-30T16:21:48;14.80;99.90
30097;DHT22;16915;51.466;3.610;2023-03-30T16:24:14;14.80;99.90
30097;DHT22;16915;51.466;3.610;2023-03-30T16:26:39;14.80;99.90
30097;DHT22;16915;51.466;3.610;2023-03-30T16:29:28;14.80;99.90
30097;DHT22;16915;51.466;3.610;2023-03-30T16:31:54;14.70;99.90
30097;DHT22;16915;51.466;3.610;2023-03-30T16:34:20;14.60;99.90
30097;DHT22;16915;51.466;3.610;2023-03-30T16:36:47;14.50;99.90
30097;DHT22;16915;51.466;3.610;2023-03-30T16:39:26;14.50;99.90
30097;DHT22;16915;51.466;3.610;2023-03-30T16:41:53;14.30;99.90
30097;DHT22;16915;51.466;3.610;2023-03-30T16:44:21;14.30;99.90
30097;DHT22;16915;51.466;3.610;2023-03-30T16:46:47;14.20;99.90
30097;DHT22;16915;51.466;3.610;2023-03-30T16:49:15;14.20;99.90
30097;DHT22;16915;51.466;3.610;2023-03-30T16:51:41;14.10;99.90
30097;DHT22;16915;51.466;3.610;2023-03-30T16:54:08;14.10;99.90
30097;DHT22;16915;51.466;3.610;2023-03-30T16:56:34;14.00;99.90
30097;DHT22;16915;51.466;3.610;2023-03-30T16:59:00;13.90;99.90
30097;DHT22;16915;51.466;3.610;2023-03-30T17:01:27;13.90;99.90
30097;DHT22;16915;51.466;3.610;2023-03-30T17:03:53;13.80;99.90
30097;DHT22;16915;51.466;3.610;2023-03-30T17:06:19;13.80;99.90
30097;DHT22;16915;51.466;3.610;2023-03-30T17:08:47;13.70;99.90
30097;DHT22;16915;51.466;3.610;2023-03-30T17:11:14;13.60;99.90
30097;DHT22;16915;51.466;3.610;2023-03-30T17:13:40;13.60;99.90
30097;DHT22;16915;51.466;3.610;2023-03-30T17:16:07;13.50;99.90
30097;DHT22;16915;51.466;3.610;2023-03-30T17:18:32;13.40;99.90
30097;DHT22;16915;51.466;3.610;2023-03-30T17:20:59;13.40;99.90
30097;DHT22;16915;51.466;3.610;2023-03-30T17:23:27;13.40;99.90
30097;DHT22;16915;51.466;3.610;2023-03-30T17:25:54;13.30;99.90
30097;DHT22;16915;51.466;3.610;2023-03-30T17:28:22;13.30;99.90
30097;DHT22;16915;51.466;3.610;2023-03-30T17:30:50;13.30;99.90
30097;DHT22;16915;51.466;3.610;2023-03-30T17:33:16;13.20;99.90
30097;DHT22;16915;51.466;3.610;2023-03-30T17:35:46;13.20;99.90
30097;DHT22;16915;51.466;3.610;2023-03-30T17:38:13;13.10;99.90
30097;DHT22;16915;51.466;3.610;2023-03-30T17:40:39;13.10;99.90
30097;DHT22;16915;51.466;3.610;2023-03-30T17:43:08;13.10;99.90
30097;DHT22;16915;51.466;3.610;2023-03-30T17:45:36;13.00;99.90
30097;DHT22;16915;51.466;3.610;2023-03-30T17:48:02;13.00;99.90
30097;DHT22;16915;51.466;3.610;2023-03-30T17:50:31;12.90;99.90
30097;DHT22;16915;51.466;3.610;2023-03-30T17:52:57;12.90;99.90
30097;DHT22;16915;51.466;3.610;2023-03-30T17:55:26;12.80;99.90
30097;DHT22;16915;51.466;3.610;2023-03-30T17:57:52;12.80;99.90
30097;DHT22;16915;51.466;3.610;2023-03-30T18:00:22;12.70;99.90
30097;DHT22;16915;51.466;3.610;2023-03-30T18:02:48;12.80;99.90
30097;DHT22;16915;51.466;3.610;2023-03-30T18:05:14;12.70;99.90
30097;DHT22;16915;51.466;3.610;2023-03-30T18:07:40;12.70;99.90
30097;DHT22;16915;51.466;3.610;2023-03-30T18:10:36;12.70;99.90
30097;DHT22;16915;51.466;3.610;2023-03-30T18:13:03;12.70;99.90
30097;DHT22;16915;51.466;3.610;2023-03-30T18:15:29;12.70;99.90
30097;DHT22;16915;51.466;3.610;2023-03-30T18:17:56;12.70;99.90
30097;DHT22;16915;51.466;3.610;2023-03-30T18:20:29;12.70;99.90
30097;DHT22;16915;51.466;3.610;2023-03-30T18:22:55;12.60;99.90
30097;DHT22;16915;51.466;3.610;2023-03-30T18:25:21;12.60;99.90